createdAt,value
2022-09-15T00:02:16.615Z,23.38
2022-09-15T00:04:45.173Z,17.88
2022-09-15T00:07:13.650Z,22.75
2022-09-15T00:09:42.074Z,18.13
2022-09-15T00:12:10.525Z,20.48
2022-09-15T00:14:38.997Z,21.30
2022-09-15T00:17:07.533Z,20.15
2022-09-15T00:19:36.137Z,21.83
2022-09-15T00:22:04.518Z,27.10
2022-09-15T00:24:34.658Z,20.33
2022-09-15T00:27:03.237Z,23.75
2022-09-15T00:29:31.797Z,23.05
2022-09-15T00:32:05.222Z,19.80
2022-09-15T00:34:33.685Z,17.20
2022-09-15T00:37:02.262Z,24.08
2022-09-15T00:39:30.712Z,19.42
2022-09-15T00:41:59.303Z,16.83
2022-09-15T00:44:36.996Z,18.67
2022-09-15T00:47:19.145Z,17.73
2022-09-15T00:50:06.399Z,17.08
2022-09-15T00:52:49.133Z,14.57
2022-09-15T00:55:17.620Z,16.05
2022-09-15T00:57:48.812Z,19.00
2022-09-15T01:00:18.795Z,19.02
2022-09-15T01:02:47.788Z,17.10
2022-09-15T01:05:18.387Z,23.05
2022-09-15T01:07:50.492Z,19.42
2022-09-15T01:10:35.932Z,27.10
2022-09-15T01:13:05.810Z,22.50
2022-09-15T01:15:57.945Z,24.10
2022-09-15T01:18:44.914Z,16.98
2022-09-15T01:21:29.999Z,23.13
2022-09-15T01:24:07.631Z,28.92
2022-09-15T01:27:24.074Z,23.67
2022-09-15T01:30:13.679Z,22.73
2022-09-15T01:33:00.505Z,18.98
2022-09-15T01:35:28.876Z,23.58
2022-09-15T01:41:08.827Z,24.63
2022-09-15T01:43:39.897Z,20.45
2022-09-15T01:46:09.384Z,24.17
2022-09-15T01:48:38.522Z,30.08
2022-09-15T01:51:07.659Z,24.42
2022-09-15T01:53:36.409Z,29.17
2022-09-15T01:56:07.433Z,32.72
2022-09-15T01:58:37.544Z,31.73
2022-09-15T02:01:18.137Z,27.10
2022-09-15T02:03:46.514Z,29.20
2022-09-15T02:06:36.466Z,30.90
2022-09-15T02:09:21.761Z,37.88
2022-09-15T02:11:54.767Z,27.05
2022-09-15T02:14:39.758Z,28.23
2022-09-15T02:17:12.552Z,38.22
2022-09-15T02:19:54.806Z,30.95
2022-09-15T02:22:29.806Z,32.15
2022-09-15T02:25:31.378Z,29.75
2022-09-15T02:28:07.569Z,28.60
2022-09-15T02:30:47.034Z,33.92
2022-09-15T02:33:24.586Z,29.02
2022-09-15T02:35:53.418Z,26.10
2022-09-15T02:38:22.088Z,33.42
2022-09-15T02:40:50.609Z,31.02
2022-09-15T02:43:20.299Z,34.47
2022-09-15T02:45:49.978Z,32.95
2022-09-15T02:48:24.010Z,34.60
2022-09-15T02:50:52.693Z,35.88
2022-09-15T02:53:26.170Z,38.13
2022-09-15T02:55:54.597Z,36.42
2022-09-15T02:58:22.963Z,38.45
2022-09-15T03:00:56.764Z,35.72
2022-09-15T03:03:25.280Z,41.55
2022-09-15T03:05:53.670Z,42.47
2022-09-15T03:08:22.227Z,39.92
2022-09-15T03:10:50.833Z,35.38
2022-09-15T03:13:19.488Z,37.60
2022-09-15T03:15:48.087Z,36.80
2022-09-15T03:18:21.548Z,33.80
2022-09-15T03:20:50.089Z,28.90
2022-09-15T03:23:18.593Z,30.45
2022-09-15T03:25:47.143Z,30.15
2022-09-15T03:28:15.580Z,36.05
2022-09-15T03:30:44.673Z,33.58
2022-09-15T03:33:13.113Z,28.70
2022-09-15T03:35:41.727Z,32.70
2022-09-15T03:38:10.576Z,29.38
2022-09-15T03:40:43.390Z,28.15
2022-09-15T03:43:18.813Z,29.37
2022-09-15T03:45:47.859Z,28.08
2022-09-15T03:48:16.299Z,26.17
2022-09-15T03:50:44.721Z,33.95
2022-09-15T03:53:23.525Z,30.13
2022-09-15T03:55:52.322Z,24.80
2022-09-15T03:58:20.750Z,31.77
2022-09-15T04:00:49.350Z,40.17
2022-09-15T04:03:17.935Z,30.27
2022-09-15T04:05:46.279Z,31.98
2022-09-15T04:08:20.363Z,27.70
2022-09-15T04:10:53.404Z,31.77
2022-09-15T04:13:27.934Z,35.25
2022-09-15T04:16:01.527Z,39.28
2022-09-15T04:18:41.020Z,33.63
2022-09-15T04:21:12.073Z,39.78
2022-09-15T04:23:41.283Z,40.97
2022-09-15T04:26:19.550Z,44.65
2022-09-15T04:28:47.916Z,40.20
2022-09-15T04:31:27.448Z,36.42
2022-09-15T04:33:58.773Z,29.27
2022-09-15T04:36:28.664Z,37.35
2022-09-15T04:38:57.529Z,48.72
2022-09-15T04:41:31.303Z,38.00
2022-09-15T04:44:00.092Z,37.70
2022-09-15T04:46:28.536Z,35.03
2022-09-15T04:48:57.468Z,39.65
2022-09-15T04:51:26.036Z,28.00
2022-09-15T04:53:54.396Z,26.55
2022-09-15T04:56:33.249Z,30.38
2022-09-15T04:59:04.204Z,28.10
2022-09-15T05:01:34.400Z,27.92
2022-09-15T05:04:06.576Z,26.58
2022-09-15T05:06:35.679Z,19.20
2022-09-15T05:09:10.062Z,20.58
2022-09-15T05:11:39.105Z,17.98
2022-09-15T05:14:08.498Z,18.92
2022-09-15T05:16:37.013Z,15.13
2022-09-15T05:19:05.506Z,16.63
2022-09-15T05:21:34.183Z,29.45
2022-09-15T05:24:02.711Z,31.80
2022-09-15T05:26:31.434Z,30.85
2022-09-15T05:29:01.820Z,21.80
2022-09-15T05:31:31.552Z,20.90
2022-09-15T05:34:00.827Z,26.38
2022-09-15T05:36:29.358Z,22.70
2022-09-15T05:38:57.984Z,22.10
2022-09-15T05:41:27.591Z,19.27
2022-09-15T05:43:57.412Z,22.58
2022-09-15T05:46:27.011Z,20.90
2022-09-15T05:48:57.312Z,17.22
2022-09-15T05:51:25.862Z,15.93
2022-09-15T05:53:54.311Z,18.20
2022-09-15T05:56:22.758Z,16.98
2022-09-15T05:58:51.556Z,17.58
2022-09-15T06:01:22.934Z,20.17
2022-09-15T06:03:53.359Z,17.00
2022-09-15T06:06:31.963Z,25.58
2022-09-15T06:09:00.998Z,17.08
2022-09-15T06:11:31.036Z,16.52
2022-09-15T06:13:59.918Z,16.20
2022-09-15T06:16:28.641Z,11.20
2022-09-15T06:18:59.273Z,13.23
2022-09-15T06:21:28.807Z,14.15
2022-09-15T06:24:01.426Z,12.20
2022-09-15T06:26:30.211Z,12.20
2022-09-15T06:28:59.809Z,9.38
2022-09-15T06:31:29.284Z,11.05
2022-09-15T06:34:09.093Z,8.80
2022-09-15T06:36:38.504Z,10.57
2022-09-15T06:39:06.958Z,10.30
2022-09-15T06:42:00.867Z,11.93
2022-09-15T06:44:24.299Z,9.70
2022-09-15T06:46:52.692Z,10.15
2022-09-15T06:49:22.283Z,10.82
2022-09-15T06:51:50.704Z,8.88
2022-09-15T06:54:29.218Z,8.88
2022-09-15T06:57:08.453Z,11.60
2022-09-15T06:59:36.817Z,13.20
2022-09-15T07:02:05.515Z,12.73
2022-09-15T07:04:44.645Z,9.85
2022-09-15T07:07:18.548Z,13.35
2022-09-15T07:09:56.643Z,10.57
2022-09-15T07:12:34.776Z,14.05
2022-09-15T07:15:08.003Z,13.30
2022-09-15T07:17:37.836Z,15.25
2022-09-15T07:20:06.627Z,14.95
2022-09-15T07:22:35.101Z,14.30
2022-09-15T07:25:03.472Z,13.07
2022-09-15T07:27:42.521Z,12.93
2022-09-15T07:30:11.676Z,13.15
2022-09-15T07:32:40.560Z,12.40
2022-09-15T07:35:09.372Z,18.02
2022-09-15T07:37:37.762Z,10.50
2022-09-15T07:40:06.561Z,12.07
2022-09-15T07:42:35.625Z,10.30
2022-09-15T07:45:04.412Z,12.85
2022-09-15T07:47:32.798Z,10.90
2022-09-15T07:50:03.825Z,9.98
2022-09-15T07:52:42.308Z,11.07
2022-09-15T07:55:21.371Z,10.68
2022-09-15T07:57:59.612Z,9.70
2022-09-15T08:00:38.489Z,7.78
2022-09-15T08:03:09.117Z,7.38
2022-09-15T08:05:45.373Z,7.22
2022-09-15T08:08:15.675Z,8.15
2022-09-15T08:10:44.111Z,9.60
2022-09-15T08:13:14.086Z,5.70
2022-09-15T08:15:42.458Z,8.60
2022-09-15T08:18:22.159Z,10.13
2022-09-15T08:20:55.920Z,9.98
2022-09-15T08:23:29.054Z,13.60
2022-09-15T08:25:57.469Z,11.27
2022-09-15T08:28:29.510Z,9.32
2022-09-15T08:31:01.701Z,11.30
2022-09-15T08:33:30.633Z,10.05
2022-09-15T08:36:06.621Z,14.93
2022-09-15T08:38:35.262Z,9.82
2022-09-15T08:41:06.792Z,9.95
2022-09-15T08:43:47.221Z,9.95
2022-09-15T08:46:18.653Z,14.18
2022-09-15T08:48:50.670Z,9.88
2022-09-15T08:51:33.154Z,16.08
2022-09-15T08:54:05.885Z,10.25
2022-09-15T08:56:35.510Z,9.52
2022-09-15T08:59:15.185Z,14.98
2022-09-15T09:02:02.179Z,15.88
2022-09-15T09:04:49.510Z,7.90
2022-09-15T09:07:32.214Z,9.63
2022-09-15T09:10:07.371Z,10.75
2022-09-15T09:15:44.208Z,16.00
2022-09-15T09:18:15.583Z,8.77
2022-09-15T09:20:49.621Z,8.75
2022-09-15T09:23:20.917Z,8.73
2022-09-15T09:25:50.485Z,11.27
2022-09-15T09:28:31.812Z,11.15
2022-09-15T09:31:07.494Z,8.96
2022-09-15T09:33:40.264Z,10.63
2022-09-15T09:36:12.118Z,12.73
2022-09-15T09:38:41.276Z,9.10
2022-09-15T09:41:20.288Z,10.07
2022-09-15T09:43:49.667Z,12.70
2022-09-15T09:46:19.107Z,13.63
2022-09-15T09:49:05.195Z,8.57
2022-09-15T09:51:52.604Z,12.57
2022-09-15T09:54:29.635Z,8.07
2022-09-15T09:57:15.803Z,12.43
2022-09-15T09:59:45.535Z,9.73
2022-09-15T10:02:14.209Z,8.52
2022-09-15T10:04:44.525Z,10.90
2022-09-15T10:07:14.318Z,6.38
2022-09-15T10:09:54.085Z,9.25
2022-09-15T10:12:33.227Z,6.03
2022-09-15T10:15:03.047Z,11.50
2022-09-15T10:17:44.746Z,11.95
2022-09-15T10:23:25.945Z,7.45
2022-09-15T10:26:16.594Z,8.25
2022-09-15T10:29:05.978Z,11.25
2022-09-15T10:31:39.540Z,6.26
2022-09-15T10:37:47.541Z,11.73
2022-09-15T10:40:30.587Z,7.95
2022-09-15T10:43:02.148Z,8.02
2022-09-15T10:45:36.156Z,9.35
2022-09-15T10:48:07.644Z,9.77
2022-09-15T10:50:46.233Z,9.75
2022-09-15T10:53:20.616Z,9.00
2022-09-15T10:56:07.756Z,12.20
2022-09-15T10:58:45.694Z,11.88
2022-09-15T11:01:18.090Z,10.55
2022-09-15T11:03:49.272Z,12.85
2022-09-15T11:06:28.767Z,12.00
2022-09-15T11:09:01.782Z,13.95
2022-09-15T11:11:36.213Z,10.43
2022-09-15T11:14:17.756Z,10.88
2022-09-15T11:16:56.032Z,13.63
2022-09-15T11:19:27.480Z,10.50
2022-09-15T11:22:10.524Z,17.15
2022-09-15T11:24:42.209Z,15.18
2022-09-15T11:27:24.256Z,16.52
2022-09-15T11:30:01.491Z,17.50
2022-09-15T11:32:35.299Z,15.57
2022-09-15T11:35:06.938Z,15.07
2022-09-15T11:37:47.857Z,17.38
2022-09-15T11:40:26.484Z,21.15
2022-09-15T11:43:09.981Z,17.00
2022-09-15T11:45:42.173Z,14.57
2022-09-15T11:48:31.538Z,16.30
2022-09-15T11:51:01.671Z,28.58
2022-09-15T11:53:39.113Z,12.18
2022-09-15T11:56:22.191Z,19.65
2022-09-15T11:59:09.223Z,10.02
2022-09-15T12:01:44.504Z,17.02
2022-09-15T12:04:22.649Z,10.17
2022-09-15T12:06:57.509Z,11.90
2022-09-15T12:09:29.943Z,9.50
2022-09-15T12:12:00.973Z,13.75
2022-09-15T12:14:32.870Z,14.38
2022-09-15T12:17:10.221Z,8.80
2022-09-15T12:19:50.197Z,19.73
2022-09-15T12:22:31.067Z,28.83
2022-09-15T12:25:24.400Z,10.93
2022-09-15T12:28:15.097Z,15.98
2022-09-15T12:31:11.519Z,10.18
2022-09-15T12:33:56.926Z,11.35
2022-09-15T12:36:34.698Z,23.60
2022-09-15T12:39:04.303Z,21.95
2022-09-15T12:41:33.484Z,13.70
2022-09-15T12:44:12.890Z,11.88
2022-09-15T12:46:52.235Z,8.77
2022-09-15T12:49:23.187Z,12.15
2022-09-15T12:51:51.620Z,10.70
2022-09-15T12:54:23.936Z,10.05
2022-09-15T12:56:53.957Z,17.73
2022-09-15T12:59:26.498Z,12.52
2022-09-15T13:01:55.690Z,25.63
2022-09-15T13:04:42.480Z,19.35
2022-09-15T13:07:17.529Z,19.92
2022-09-15T13:12:54.927Z,16.65
2022-09-15T13:15:28.451Z,20.85
2022-09-15T13:18:04.576Z,14.73
2022-09-15T13:20:48.655Z,15.65
2022-09-15T13:23:26.184Z,16.81
2022-09-15T13:26:07.547Z,21.80
2022-09-15T13:28:37.753Z,24.70
2022-09-15T13:40:11.125Z,101.88
2022-09-15T13:42:53.651Z,115.10
2022-09-15T13:45:38.207Z,97.18
2022-09-15T13:48:18.264Z,55.00
2022-09-15T13:50:56.335Z,70.80
2022-09-15T13:53:36.732Z,43.78
2022-09-15T13:56:08.823Z,36.00
2022-09-15T13:59:01.444Z,31.90
2022-09-15T14:01:34.451Z,35.80
2022-09-15T14:04:06.158Z,31.83
2022-09-15T14:06:38.460Z,35.78
2022-09-15T14:09:18.906Z,78.38
2022-09-15T14:11:52.293Z,66.68
2022-09-15T14:14:36.294Z,74.40
2022-09-15T14:17:04.911Z,46.95
2022-09-15T14:19:34.935Z,61.20
2022-09-15T14:22:18.298Z,34.22
2022-09-15T14:24:47.626Z,39.53
2022-09-15T14:27:25.296Z,33.33
2022-09-15T14:29:55.759Z,45.65
2022-09-15T14:32:25.537Z,54.00
2022-09-15T14:35:06.846Z,53.53
2022-09-15T14:37:35.339Z,55.97
2022-09-15T14:40:17.717Z,36.17
2022-09-15T14:42:46.208Z,32.65
2022-09-15T14:48:28.628Z,20.48
2022-09-15T14:51:19.165Z,22.02
2022-09-15T14:53:50.132Z,21.83
2022-09-15T14:56:23.979Z,27.25
2022-09-15T14:58:58.676Z,24.58
2022-09-15T15:01:38.133Z,21.13
2022-09-15T15:04:20.431Z,23.98
2022-09-15T15:09:27.916Z,24.35
2022-09-15T15:12:06.865Z,22.35
2022-09-15T15:14:39.442Z,25.02
2022-09-15T15:17:24.674Z,20.50
2022-09-15T15:20:01.297Z,36.30
2022-09-15T15:22:32.035Z,34.30
2022-09-15T15:25:23.564Z,34.38
2022-09-15T15:28:01.722Z,28.55
2022-09-15T15:30:30.981Z,25.38
2022-09-15T15:33:04.368Z,24.30
2022-09-15T15:35:43.906Z,26.30
2022-09-15T15:38:18.579Z,23.42
2022-09-15T15:40:47.827Z,21.92
2022-09-15T15:43:26.691Z,26.80
2022-09-15T15:45:58.665Z,28.00
2022-09-15T15:48:37.950Z,33.38
2022-09-15T15:51:12.009Z,42.78
2022-09-15T15:53:50.630Z,50.10
2022-09-15T15:56:24.190Z,33.55
2022-09-15T15:58:58.451Z,36.00
2022-09-15T16:01:27.035Z,46.58
2022-09-15T16:03:56.400Z,48.85
2022-09-15T16:06:25.020Z,45.92
2022-09-15T16:08:53.502Z,52.22
2022-09-15T16:11:26.985Z,52.47
2022-09-15T16:13:55.421Z,47.88
2022-09-15T16:16:25.994Z,62.38
2022-09-15T16:18:54.847Z,62.63
2022-09-15T16:21:38.748Z,57.65
2022-09-15T16:24:10.923Z,48.85
2022-09-15T16:26:39.819Z,55.00
2022-09-15T16:29:13.493Z,47.72
2022-09-15T16:31:51.602Z,59.88
2022-09-15T16:34:20.039Z,49.65
2022-09-15T16:36:55.324Z,48.43
2022-09-15T16:39:29.966Z,48.05
2022-09-15T16:44:37.134Z,41.78
2022-09-15T16:47:06.985Z,40.05
2022-09-15T16:49:39.769Z,43.10
2022-09-15T16:52:09.581Z,38.63
2022-09-15T16:54:38.340Z,39.10
2022-09-15T16:57:11.749Z,39.72
2022-09-15T16:59:45.158Z,42.15
2022-09-15T17:02:14.342Z,41.03
2022-09-15T17:04:42.777Z,43.83
2022-09-15T17:07:21.269Z,43.70
2022-09-15T17:09:51.663Z,46.88
2022-09-15T17:12:20.346Z,46.15
2022-09-15T17:14:49.193Z,49.45
2022-09-15T17:17:24.143Z,60.42
2022-09-15T17:19:52.483Z,42.30
2022-09-15T17:22:20.882Z,47.55
2022-09-15T17:24:52.931Z,51.13
2022-09-15T17:27:21.328Z,58.83
2022-09-15T17:29:54.517Z,55.75
2022-09-15T17:32:22.885Z,54.38
2022-09-15T17:34:52.213Z,64.30
2022-09-15T17:37:20.546Z,54.92
2022-09-15T17:39:58.693Z,53.40
2022-09-15T17:42:27.382Z,58.38
2022-09-15T17:44:55.771Z,57.63
2022-09-15T17:47:24.286Z,56.55
2022-09-15T17:49:52.642Z,49.60
2022-09-15T17:52:21.294Z,61.38
2022-09-15T17:54:49.798Z,62.15
2022-09-15T17:57:23.406Z,60.55
2022-09-15T17:59:52.580Z,56.20
2022-09-15T18:02:21.642Z,55.92
2022-09-15T18:04:54.051Z,56.65
2022-09-15T18:07:22.952Z,68.07
2022-09-15T18:09:51.515Z,55.58
2022-09-15T18:12:29.740Z,56.55
2022-09-15T18:15:11.628Z,59.10
2022-09-15T18:17:40.049Z,72.55
2022-09-15T18:20:08.877Z,65.97
2022-09-15T18:22:48.168Z,66.93
2022-09-15T18:25:31.363Z,61.83
2022-09-15T18:28:10.453Z,66.70
2022-09-15T18:33:15.284Z,81.07
2022-09-15T18:35:56.576Z,76.32
2022-09-15T18:38:25.032Z,74.53
2022-09-15T18:40:58.114Z,83.07
2022-09-15T18:43:28.784Z,69.50
2022-09-15T18:46:00.573Z,76.85
2022-09-15T18:48:37.826Z,74.47
2022-09-15T18:51:24.246Z,67.70
2022-09-15T18:53:57.933Z,74.88
2022-09-15T18:56:26.304Z,62.60
2022-09-15T18:58:55.253Z,60.10
2022-09-15T19:01:23.859Z,58.65
2022-09-15T19:03:53.507Z,53.20
2022-09-15T19:06:22.033Z,49.63
2022-09-15T19:08:50.395Z,59.03
2022-09-15T19:11:18.827Z,59.25
2022-09-15T19:13:47.205Z,74.60
2022-09-15T19:16:15.764Z,111.63
2022-09-15T19:18:45.337Z,171.15
2022-09-15T19:21:13.794Z,201.43
2022-09-15T19:23:42.678Z,169.00
2022-09-15T19:26:14.209Z,124.63
2022-09-15T19:28:43.597Z,88.78
2022-09-15T19:31:13.112Z,98.28
2022-09-15T19:33:41.583Z,84.18
2022-09-15T19:36:27.374Z,63.10
2022-09-15T19:38:56.780Z,71.60
2022-09-15T19:41:25.146Z,67.35
2022-09-15T19:43:53.799Z,67.05
2022-09-15T19:46:26.228Z,59.15
2022-09-15T19:48:54.866Z,61.63
2022-09-15T19:51:23.808Z,63.03
2022-09-15T19:53:56.319Z,62.63
2022-09-15T19:56:26.741Z,63.08
2022-09-15T19:58:56.364Z,65.35
2022-09-15T20:01:25.762Z,61.78
2022-09-15T20:03:55.076Z,53.55
2022-09-15T20:06:32.702Z,67.15
2022-09-15T20:09:01.230Z,63.92
2022-09-15T20:11:30.254Z,67.80
2022-09-15T20:13:58.910Z,82.93
2022-09-15T20:16:31.709Z,79.93
2022-09-15T20:19:00.123Z,76.72
2022-09-15T20:21:49.253Z,72.13
2022-09-15T20:24:19.429Z,77.07
2022-09-15T20:26:47.932Z,96.57
2022-09-15T20:29:16.627Z,62.80
2022-09-15T20:31:45.218Z,64.00
2022-09-15T20:34:13.809Z,53.60
2022-09-15T20:36:42.120Z,55.63
2022-09-15T20:39:13.475Z,54.80
2022-09-15T20:41:45.329Z,54.50
2022-09-15T20:44:14.135Z,55.88
2022-09-15T20:46:42.826Z,54.55
2022-09-15T20:49:11.457Z,62.90
2022-09-15T20:51:39.933Z,60.88
2022-09-15T20:54:08.287Z,62.63
2022-09-15T20:56:36.749Z,71.10
2022-09-15T20:59:06.356Z,60.95
2022-09-15T21:01:37.113Z,61.15
2022-09-15T21:04:06.626Z,59.47
2022-09-15T21:06:35.356Z,59.30
2022-09-15T21:09:04.542Z,58.47
2022-09-15T21:11:33.025Z,62.15
2022-09-15T21:14:01.626Z,60.92
2022-09-15T21:16:40.673Z,77.47
2022-09-15T21:19:13.050Z,77.87
2022-09-15T21:21:51.543Z,103.18
2022-09-15T21:24:20.075Z,109.30
2022-09-15T21:27:06.950Z,67.22
2022-09-15T21:29:45.462Z,50.83
2022-09-15T21:32:13.825Z,48.00
2022-09-15T21:34:42.275Z,52.00
2022-09-15T21:37:11.276Z,63.85
2022-09-15T21:39:39.577Z,58.63
2022-09-15T21:42:13.496Z,75.95
2022-09-15T21:44:52.520Z,57.75
2022-09-15T21:47:32.954Z,64.78
2022-09-15T21:50:11.677Z,61.03
2022-09-15T21:52:40.173Z,66.85
2022-09-15T21:55:13.522Z,78.40
2022-09-15T21:57:41.941Z,73.50
2022-09-15T22:00:10.605Z,81.15
2022-09-15T22:02:38.970Z,78.00
2022-09-15T22:05:17.310Z,87.47
2022-09-15T22:07:45.725Z,76.22
2022-09-15T22:10:14.173Z,96.13
2022-09-15T22:12:47.527Z,89.47
2022-09-15T22:15:19.038Z,82.20
2022-09-15T22:17:52.783Z,94.60
2022-09-15T22:20:31.462Z,80.10
2022-09-15T22:23:05.094Z,83.95
2022-09-15T22:25:33.870Z,84.70
2022-09-15T22:28:12.042Z,88.60
2022-09-15T22:30:50.001Z,82.05
2022-09-15T22:33:18.450Z,79.55
2022-09-15T22:35:57.848Z,88.75
2022-09-15T22:38:36.499Z,79.93
2022-09-15T22:41:05.960Z,82.68
2022-09-15T22:43:45.421Z,81.63
2022-09-15T22:46:22.533Z,79.13
2022-09-15T22:49:00.950Z,77.83
2022-09-15T22:51:30.122Z,80.60
2022-09-15T22:53:58.831Z,68.28
2022-09-15T22:56:37.206Z,75.60
2022-09-15T22:59:06.284Z,69.67
2022-09-15T23:01:34.756Z,66.95
2022-09-15T23:04:03.393Z,67.45
2022-09-15T23:06:33.116Z,68.55
2022-09-15T23:09:10.022Z,63.10
2022-09-15T23:11:42.353Z,91.72
2022-09-15T23:14:13.297Z,75.70
2022-09-15T23:16:51.968Z,75.35
2022-09-15T23:19:20.567Z,99.70
2022-09-15T23:21:48.945Z,112.13
2022-09-15T23:24:17.491Z,105.00
2022-09-15T23:26:45.846Z,100.28
2022-09-15T23:29:14.252Z,91.82
2022-09-15T23:31:42.769Z,83.18
2022-09-15T23:34:11.263Z,67.20
2022-09-15T23:36:39.660Z,59.20
2022-09-15T23:39:08.032Z,65.40
2022-09-15T23:41:37.221Z,75.15
2022-09-15T23:44:05.790Z,85.25
2022-09-15T23:46:34.877Z,180.77
2022-09-15T23:49:17.980Z,109.00
2022-09-15T23:51:57.061Z,114.95
2022-09-15T23:54:25.439Z,79.38
2022-09-15T23:56:53.851Z,70.20
2022-09-15T23:59:22.300Z,65.10
